Terminal Aerodrome Forecast
Issued by NWS Duluth, MN

Home | Current Version | Previous Version | Text Only | Print | Product List | Glossary On
Versions: 1 2 3 4 5 6 7 8 9 10 11 12 13 14 15 16 17 18
732
FTUS43 KDLH 231226 AAB
TAFDLH
TAF AMD
KDLH 231226Z 2312/2412 14011KT P6SM VCSH SCT045 OVC060
     FM231800 18010KT P6SM OVC025
     FM232000 17008KT P6SM VCSH OVC015
     FM232300 16006KT 2SM -RA OVC010
     FM240400 00000KT 1SM -RASN OVC003
     FM240900 VRB03KT P6SM OVC008=

USA.gov is the U.S. government's official web portal to all federal, state and local government web resources and services.